Time;durP1;ratioP1;P1;durP2;ratioP2;P2;SDS_P1;SDS_P2;PMS_P1;PMS_P2;Temp;Humidity;BMP_temperature;BMP_pressure;BME280_temperature;BME280_humidity;BME280_pressure;Samples;Min_cycle;Max_cycle;Signal;HPM_P1;HPM_P2
2023/01/28 00:00:51;;;;;;;0.43;0.43;;;1.40;99.90;;;;;;4443253;32;20081;-59
2023/01/28 00:03:16;;;;;;;0.62;0.62;;;1.40;99.90;;;;;;4430379;32;20093;-60
2023/01/28 00:05:42;;;;;;;0.50;0.50;;;1.40;99.90;;;;;;4443791;32;20196;-60
2023/01/28 00:08:07;;;;;;;0.37;0.37;;;1.40;99.90;;;;;;4443249;32;20081;-60
2023/01/28 00:10:33;;;;;;;1.55;0.90;;;1.20;99.90;;;;;;4443503;32;20114;-59
2023/01/28 00:12:58;;;;;;;1.20;0.90;;;1.20;99.90;;;;;;4445129;32;20110;-60
2023/01/28 00:15:24;;;;;;;0.57;0.57;;;1.20;99.90;;;;;;4443857;32;20077;-60
2023/01/28 00:17:50;;;;;;;0.50;0.50;;;1.30;99.90;;;;;;4443084;32;20099;-59
2023/01/28 00:20:15;;;;;;;2.70;1.02;;;1.20;99.90;;;;;;4442165;32;20086;-59
2023/01/28 00:22:46;;;;;;;0.50;0.50;;;1.10;99.90;;;;;;4443837;32;20120;-60
2023/01/28 00:25:12;;;;;;;0.60;0.60;;;1.00;99.90;;;;;;4442283;32;20102;-59
2023/01/28 00:27:37;;;;;;;1.23;1.12;;;1.00;99.90;;;;;;4442604;32;20097;-60
2023/01/28 00:30:03;;;;;;;0.50;0.50;;;1.00;99.90;;;;;;4441948;32;20057;-60
2023/01/28 00:32:29;;;;;;;2.95;1.55;;;1.00;99.90;;;;;;4440785;32;20058;-59
2023/01/28 00:34:54;;;;;;;0.90;0.60;;;0.80;99.90;;;;;;4443667;32;20069;-59
2023/01/28 00:37:20;;;;;;;0.47;0.47;;;0.60;99.90;;;;;;4444819;32;20093;-60
2023/01/28 00:39:45;;;;;;;0.60;0.60;;;0.60;99.90;;;;;;4444669;32;20097;-60
2023/01/28 00:42:11;;;;;;;0.40;0.40;;;0.60;99.90;;;;;;4446663;32;20086;-60
2023/01/28 00:44:36;;;;;;;0.57;0.57;;;0.60;99.90;;;;;;4443507;32;20100;-58
2023/01/28 00:47:02;;;;;;;0.40;0.40;;;0.60;99.90;;;;;;4443916;32;20053;-60
2023/01/28 00:49:27;;;;;;;0.40;0.40;;;0.50;99.90;;;;;;4441804;32;20077;-60
2023/01/28 00:51:53;;;;;;;0.60;0.60;;;0.40;99.90;;;;;;4442449;32;20066;-59
2023/01/28 00:54:18;;;;;;;1.65;1.33;;;0.50;99.90;;;;;;4441383;32;20082;-59
2023/01/28 00:56:44;;;;;;;0.50;0.50;;;0.50;99.90;;;;;;4442996;32;20169;-59
2023/01/28 00:59:10;;;;;;;0.93;0.75;;;0.50;99.90;;;;;;4443040;32;20066;-59
2023/01/28 01:01:35;;;;;;;0.60;0.60;;;0.40;99.90;;;;;;4442700;32;20050;-60
2023/01/28 01:04:02;;;;;;;0.93;0.93;;;0.30;99.90;;;;;;4443553;32;20119;-60
2023/01/28 01:06:31;;;;;;;0.73;0.65;;;0.30;99.90;;;;;;4443890;32;20070;-60
2023/01/28 01:08:57;;;;;;;0.55;0.55;;;0.30;99.90;;;;;;4418967;32;20065;-60
2023/01/28 01:11:23;;;;;;;0.40;0.40;;;0.40;99.90;;;;;;4443388;32;20082;-60
2023/01/28 01:13:51;;;;;;;0.40;0.40;;;0.50;99.90;;;;;;4443988;32;20081;-60
2023/01/28 01:16:16;;;;;;;0.65;0.65;;;0.60;99.90;;;;;;4428285;32;20042;-59
2023/01/28 01:18:42;;;;;;;2.05;1.75;;;0.60;99.90;;;;;;4442578;32;20125;-58
2023/01/28 01:21:12;;;;;;;0.50;0.50;;;0.60;99.90;;;;;;4431644;32;20045;-60
2023/01/28 01:23:37;;;;;;;0.60;0.60;;;0.70;99.90;;;;;;4429838;32;20069;-60
2023/01/28 01:26:04;;;;;;;0.50;0.50;;;0.80;99.90;;;;;;4425330;32;20082;-60
2023/01/28 01:28:30;;;;;;;0.37;0.37;;;0.80;99.90;;;;;;4427475;32;20105;-58
2023/01/28 01:31:00;;;;;;;0.50;0.50;;;0.90;99.90;;;;;;4442313;32;20073;-60
2023/01/28 01:33:28;;;;;;;2.97;1.25;;;0.90;99.90;;;;;;4429010;32;20054;-60
2023/01/28 01:35:54;;;;;;;0.70;0.70;;;0.80;99.90;;;;;;4430733;32;20073;-59
2023/01/28 01:38:19;;;;;;;0.75;0.75;;;0.80;99.90;;;;;;4443411;32;20076;-59
2023/01/28 01:40:45;;;;;;;0.62;0.62;;;0.70;99.90;;;;;;4443220;32;20108;-58
2023/01/28 01:43:15;;;;;;;0.45;0.45;;;0.70;99.90;;;;;;4430327;32;20085;-60
2023/01/28 01:45:42;;;;;;;0.47;0.47;;;0.70;99.90;;;;;;4443621;32;20144;-60
2023/01/28 01:48:19;;;;;;;0.40;0.40;;;0.70;99.90;;;;;;4443052;32;20085;-60
2023/01/28 01:51:12;;;;;;;0.50;0.50;;;0.80;99.90;;;;;;4443194;32;20033;-60
2023/01/28 01:53:48;;;;;;;0.70;0.70;;;0.90;99.90;;;;;;4430897;32;20053;-60
2023/01/28 01:56:17;;;;;;;0.65;0.65;;;0.90;99.90;;;;;;4429159;32;20105;-60
2023/01/28 01:58:46;;;;;;;0.40;0.40;;;0.90;99.90;;;;;;4430830;32;20108;-60
2023/01/28 02:01:12;;;;;;;0.40;0.40;;;1.00;99.90;;;;;;4442153;32;20046;-61
2023/01/28 02:04:00;;;;;;;0.70;0.70;;;1.00;99.90;;;;;;4443964;32;20065;-58
2023/01/28 02:06:27;;;;;;;0.40;0.40;;;1.00;99.90;;;;;;4432010;32;20046;-60
2023/01/28 02:08:54;;;;;;;0.40;0.40;;;1.00;99.90;;;;;;4429112;32;20097;-60
2023/01/28 02:11:20;;;;;;;3.62;1.15;;;1.10;99.90;;;;;;4429649;32;20049;-60
2023/01/28 02:13:49;;;;;;;0.50;0.50;;;1.20;99.90;;;;;;4443503;32;20063;-60
2023/01/28 02:16:15;;;;;;;0.93;0.93;;;1.30;99.90;;;;;;4428475;32;20078;-59
2023/01/28 02:18:41;;;;;;;0.50;0.50;;;1.30;99.90;;;;;;4443045;32;20101;-60
2023/01/28 02:21:46;;;;;;;0.57;0.57;;;1.20;99.90;;;;;;4444017;32;20077;-60
2023/01/28 02:24:15;;;;;;;0.60;0.60;;;1.10;99.90;;;;;;4433372;32;20093;-60
2023/01/28 02:26:44;;;;;;;0.45;0.45;;;1.20;99.90;;;;;;4442640;32;20081;-60
2023/01/28 02:29:16;;;;;;;0.40;0.40;;;1.10;99.90;;;;;;4444195;32;20089;-60
2023/01/28 02:31:51;;;;;;;2.75;0.70;;;1.30;99.90;;;;;;4445848;32;20096;-60
2023/01/28 02:34:29;;;;;;;0.55;0.55;;;1.20;99.90;;;;;;4444284;32;20083;-60
2023/01/28 02:37:13;;;;;;;0.55;0.55;;;1.10;99.90;;;;;;4445512;32;20053;-59
2023/01/28 02:39:42;;;;;;;0.40;0.40;;;1.10;99.90;;;;;;4430528;32;20105;-60
2023/01/28 02:42:29;;;;;;;1.60;1.47;;;1.20;99.90;;;;;;4433001;32;20097;-60
2023/01/28 02:44:55;;;;;;;0.40;0.40;;;1.20;99.90;;;;;;4434955;32;20098;-60
2023/01/28 02:48:20;;;;;;;1.00;0.77;;;1.20;99.90;;;;;;4430733;32;20037;-60
2023/01/28 02:50:11;;;;;;;1.37;0.80;;;1.20;99.90;;;;;;4419309;32;20046;-59
2023/01/28 02:53:58;;;;;;;0.85;0.85;;;1.20;99.90;;;;;;4431802;32;20097;-60
2023/01/28 02:55:56;;;;;;;0.40;0.40;;;1.20;99.90;;;;;;4425249;32;20022;-59
2023/01/28 02:58:36;;;;;;;0.40;0.40;;;1.30;99.90;;;;;;4429180;32;20093;-61
2023/01/28 03:01:24;;;;;;;0.50;0.50;;;1.20;99.90;;;;;;4432867;32;20061;-60
2023/01/28 03:04:00;;;;;;;0.50;0.50;;;1.30;99.90;;;;;;4433389;32;20100;-59
2023/01/28 03:06:33;;;;;;;0.40;0.40;;;1.30;99.90;;;;;;4445165;32;20098;-60
2023/01/28 03:09:36;;;;;;;0.50;0.50;;;1.30;99.90;;;;;;4445163;32;20097;-59
2023/01/28 03:36:54;;;;;;;1.00;1.00;;;1.20;99.90;;;;;;4431282;32;20124;-60
2023/01/28 03:37:08;;;;;;;1.45;1.35;;;1.20;99.90;;;;;;4430597;32;20105;-60
2023/01/28 03:39:34;;;;;;;0.73;0.73;;;1.40;99.90;;;;;;4444245;32;20069;-60
2023/01/28 03:42:06;;;;;;;0.50;0.50;;;1.30;99.90;;;;;;4444939;32;20050;-60
2023/01/28 03:45:04;;;;;;;0.50;0.50;;;1.30;99.90;;;;;;4427244;32;20097;-58
2023/01/28 03:47:19;;;;;;;0.88;0.85;;;1.40;99.90;;;;;;4421499;32;20120;-60
2023/01/28 03:49:48;;;;;;;0.50;0.50;;;1.40;99.90;;;;;;4430617;32;20053;-60
2023/01/28 03:52:17;;;;;;;0.50;0.50;;;1.30;99.90;;;;;;4430221;32;20091;-60
2023/01/28 03:54:43;;;;;;;0.43;0.43;;;1.30;99.90;;;;;;4432259;32;20324;-60
2023/01/28 03:57:08;;;;;;;0.30;0.30;;;1.40;99.90;;;;;;4441090;32;20033;-60
2023/01/28 03:59:34;;;;;;;0.47;0.47;;;1.40;99.90;;;;;;4441375;32;20057;-60
2023/01/28 04:02:02;;;;;;;0.50;0.50;;;1.40;99.90;;;;;;4442933;32;20119;-61
2023/01/28 04:04:29;;;;;;;0.50;0.50;;;1.40;99.90;;;;;;4420734;32;20078;-59
2023/01/28 04:06:55;;;;;;;0.50;0.50;;;1.40;99.90;;;;;;4443472;32;20081;-61
2023/01/28 04:09:21;;;;;;;0.40;0.40;;;1.40;99.90;;;;;;4444083;32;20112;-60
2023/01/28 04:11:47;;;;;;;0.68;0.68;;;1.40;99.90;;;;;;4430212;32;20043;-59
2023/01/28 04:14:14;;;;;;;0.75;0.75;;;1.50;99.90;;;;;;4432041;32;20638;-59
2023/01/28 04:16:40;;;;;;;0.60;0.60;;;1.60;99.90;;;;;;4429807;32;20128;-60
2023/01/28 04:19:05;;;;;;;5.62;2.92;;;1.50;99.90;;;;;;4429081;32;20117;-60
2023/01/28 04:21:31;;;;;;;0.50;0.50;;;1.60;99.90;;;;;;4443627;32;20057;-60
2023/01/28 04:23:56;;;;;;;0.47;0.47;;;1.60;99.90;;;;;;4444255;32;20090;-60
2023/01/28 04:26:22;;;;;;;0.98;0.82;;;1.60;99.90;;;;;;4445096;32;20106;-60
2023/01/28 04:28:47;;;;;;;0.50;0.50;;;1.60;99.90;;;;;;4431826;32;20030;-60
2023/01/28 04:31:13;;;;;;;0.40;0.40;;;1.70;99.90;;;;;;4444670;32;20098;-60
2023/01/28 04:33:38;;;;;;;0.50;0.50;;;1.60;99.90;;;;;;4442612;32;20083;-61
2023/01/28 04:36:04;;;;;;;0.43;0.43;;;1.50;99.90;;;;;;4444992;32;20049;-60
2023/01/28 04:38:29;;;;;;;0.50;0.50;;;1.50;99.90;;;;;;4442798;32;20827;-59
2023/01/28 04:40:55;;;;;;;0.52;0.52;;;1.40;99.90;;;;;;4443929;32;20082;-61
2023/01/28 04:43:20;;;;;;;0.50;0.50;;;1.50;99.90;;;;;;4444426;32;20276;-60
2023/01/28 04:45:47;;;;;;;0.45;0.45;;;1.60;99.90;;;;;;4444549;32;20065;-60
2023/01/28 04:48:13;;;;;;;0.40;0.40;;;1.70;99.90;;;;;;4429717;32;20061;-60
2023/01/28 04:50:39;;;;;;;0.50;0.50;;;1.80;99.90;;;;;;4429840;32;20034;-60
2023/01/28 04:53:04;;;;;;;0.40;0.40;;;1.80;99.90;;;;;;4443987;32;20062;-60
2023/01/28 04:55:30;;;;;;;0.65;0.65;;;1.80;99.90;;;;;;4443119;32;20128;-60
2023/01/28 04:57:56;;;;;;;0.40;0.40;;;1.90;99.90;;;;;;4429851;32;20045;-60
2023/01/28 05:00:21;;;;;;;0.55;0.55;;;1.90;99.90;;;;;;4443733;32;20062;-60
2023/01/28 05:02:47;;;;;;;0.50;0.50;;;1.80;99.90;;;;;;4442793;32;20037;-61
2023/01/28 05:05:12;;;;;;;0.47;0.47;;;1.70;99.90;;;;;;4443904;32;20089;-59
2023/01/28 05:07:38;;;;;;;0.52;0.52;;;1.80;99.90;;;;;;4442819;32;20101;-59
2023/01/28 05:10:04;;;;;;;0.50;0.50;;;1.80;99.90;;;;;;4429700;32;20033;-61
2023/01/28 05:12:31;;;;;;;0.43;0.43;;;1.70;99.90;;;;;;4429511;32;20046;-60
2023/01/28 05:14:59;;;;;;;0.40;0.40;;;1.70;99.90;;;;;;4443217;32;20069;-60
2023/01/28 05:17:25;;;;;;;0.40;0.40;;;1.80;99.90;;;;;;4440624;32;20116;-60
2023/01/28 05:19:50;;;;;;;0.55;0.55;;;1.70;99.90;;;;;;4443375;32;20077;-58
2023/01/28 05:22:16;;;;;;;0.55;0.55;;;1.70;99.90;;;;;;4442682;32;20082;-60
2023/01/28 05:24:41;;;;;;;0.50;0.50;;;1.80;99.90;;;;;;4442861;32;20428;-58
2023/01/28 05:27:07;;;;;;;0.40;0.40;;;1.80;99.90;;;;;;4443138;32;20057;-60
2023/01/28 05:29:32;;;;;;;0.40;0.40;;;1.80;99.90;;;;;;4441988;32;20073;-59
2023/01/28 05:31:58;;;;;;;0.40;0.40;;;1.80;99.90;;;;;;4431176;32;20086;-59
2023/01/28 05:34:23;;;;;;;0.40;0.40;;;1.90;99.90;;;;;;4442512;32;20334;-60
2023/01/28 05:36:49;;;;;;;0.50;0.50;;;2.00;99.90;;;;;;4441714;32;20081;-60
2023/01/28 05:39:14;;;;;;;0.40;0.40;;;2.00;99.90;;;;;;4443024;32;20057;-61
2023/01/28 05:41:40;;;;;;;0.82;0.82;;;2.00;99.90;;;;;;4441741;32;20093;-60
2023/01/28 05:44:05;;;;;;;0.77;0.77;;;2.00;99.90;;;;;;4443304;32;20097;-60
2023/01/28 05:46:30;;;;;;;0.40;0.40;;;1.90;99.90;;;;;;4444075;32;20046;-60
2023/01/28 05:48:56;;;;;;;0.40;0.40;;;1.80;99.90;;;;;;4442945;32;20110;-58
2023/01/28 05:51:21;;;;;;;0.55;0.55;;;1.80;99.90;;;;;;4443526;32;20042;-60
2023/01/28 05:53:47;;;;;;;1.25;1.15;;;1.90;99.90;;;;;;4442588;32;20123;-60
2023/01/28 05:56:12;;;;;;;0.68;0.68;;;1.90;99.90;;;;;;4442877;32;20077;-60
2023/01/28 05:58:38;;;;;;;0.40;0.40;;;1.80;99.90;;;;;;4442767;32;20078;-60
2023/01/28 06:01:03;;;;;;;0.50;0.50;;;1.90;99.90;;;;;;4443739;32;20149;-60
2023/01/28 06:03:29;;;;;;;0.50;0.50;;;1.80;99.90;;;;;;4440790;32;20093;-59
2023/01/28 06:05:54;;;;;;;0.50;0.50;;;1.90;99.90;;;;;;4441958;32;20076;-59
2023/01/28 06:08:20;;;;;;;0.50;0.50;;;1.90;99.90;;;;;;4442604;32;20033;-60
2023/01/28 06:10:45;;;;;;;0.50;0.50;;;1.80;99.90;;;;;;4429944;32;20092;-60
2023/01/28 06:13:11;;;;;;;0.40;0.40;;;1.90;99.90;;;;;;4442549;32;20022;-59
2023/01/28 06:15:36;;;;;;;0.45;0.45;;;1.90;99.90;;;;;;4442384;32;20469;-61
2023/01/28 06:18:02;;;;;;;0.47;0.47;;;1.90;99.90;;;;;;4439701;32;20030;-60
2023/01/28 06:20:27;;;;;;;0.90;0.82;;;2.00;99.90;;;;;;4440827;32;20070;-59
2023/01/28 06:22:53;;;;;;;0.70;0.70;;;1.90;99.90;;;;;;4441171;32;20990;-60
2023/01/28 06:25:18;;;;;;;0.50;0.50;;;2.00;99.90;;;;;;4441690;32;20097;-59
2023/01/28 06:27:45;;;;;;;0.50;0.50;;;2.10;99.90;;;;;;4427043;32;20091;-57
2023/01/28 06:30:11;;;;;;;1.00;0.93;;;2.10;99.90;;;;;;4441561;32;20058;-59
2023/01/28 06:32:36;;;;;;;0.60;0.60;;;2.10;99.90;;;;;;4427723;32;20060;-60
2023/01/28 06:35:02;;;;;;;0.40;0.40;;;2.10;99.90;;;;;;4442913;32;20082;-60
2023/01/28 06:37:28;;;;;;;0.50;0.50;;;2.20;99.90;;;;;;4442266;32;20091;-60
2023/01/28 06:39:53;;;;;;;0.68;0.68;;;2.20;99.90;;;;;;4442446;32;20066;-59
2023/01/28 06:42:18;;;;;;;1.40;1.08;;;2.20;99.90;;;;;;4442299;32;20139;-60
2023/01/28 06:44:44;;;;;;;0.70;0.70;;;2.20;99.90;;;;;;4441880;32;20094;-60
2023/01/28 06:47:09;;;;;;;0.60;0.60;;;2.20;99.90;;;;;;4427190;32;20056;-60
2023/01/28 06:49:36;;;;;;;0.43;0.43;;;2.20;99.90;;;;;;4441268;32;20089;-59
2023/01/28 06:52:01;;;;;;;0.40;0.40;;;2.20;99.90;;;;;;4441491;32;20061;-60
2023/01/28 06:54:27;;;;;;;0.88;0.65;;;2.20;99.90;;;;;;4442137;32;20094;-60
2023/01/28 06:56:52;;;;;;;0.62;0.62;;;2.30;99.90;;;;;;4441718;32;20025;-60
2023/01/28 06:59:18;;;;;;;0.60;0.60;;;2.30;99.90;;;;;;4442139;32;20070;-60
2023/01/28 07:01:43;;;;;;;0.50;0.50;;;2.30;99.90;;;;;;4442888;32;20046;-60
2023/01/28 07:04:09;;;;;;;0.47;0.47;;;2.20;99.90;;;;;;4441931;32;20076;-60
2023/01/28 07:06:35;;;;;;;1.98;0.95;;;2.10;99.90;;;;;;4442748;32;20084;-60
2023/01/28 07:09:00;;;;;;;0.40;0.40;;;2.10;99.90;;;;;;4442368;32;20097;-60
2023/01/28 07:11:26;;;;;;;0.40;0.40;;;2.10;99.90;;;;;;4442217;32;20104;-61
2023/01/28 07:13:52;;;;;;;0.40;0.40;;;2.20;99.90;;;;;;4429603;32;20049;-60
2023/01/28 07:16:17;;;;;;;6.65;1.60;;;2.10;99.90;;;;;;4444565;32;20096;-60
2023/01/28 07:18:43;;;;;;;0.45;0.45;;;2.10;99.90;;;;;;4444948;32;20248;-60
2023/01/28 07:21:08;;;;;;;0.80;0.80;;;2.00;99.90;;;;;;4445117;32;20507;-61
2023/01/28 07:23:34;;;;;;;0.40;0.40;;;2.00;99.90;;;;;;4431307;32;20084;-61
2023/01/28 07:26:00;;;;;;;0.43;0.43;;;2.00;99.90;;;;;;4444875;32;20070;-60
2023/01/28 07:28:26;;;;;;;0.40;0.40;;;2.00;99.90;;;;;;4443353;32;20126;-60
2023/01/28 07:30:52;;;;;;;0.50;0.50;;;2.00;99.90;;;;;;4445827;32;20069;-61
2023/01/28 07:33:17;;;;;;;0.60;0.60;;;2.00;99.90;;;;;;4444233;32;20072;-61
2023/01/28 07:35:43;;;;;;;0.57;0.57;;;2.00;99.90;;;;;;4444497;32;20131;-61
2023/01/28 07:38:09;;;;;;;0.68;0.68;;;2.00;99.90;;;;;;4429470;32;20085;-61
2023/01/28 07:40:34;;;;;;;0.50;0.50;;;2.10;99.90;;;;;;4443839;32;20056;-61
2023/01/28 07:43:00;;;;;;;2.75;1.90;;;2.10;99.90;;;;;;4432016;32;20126;-60
2023/01/28 07:45:27;;;;;;;0.45;0.45;;;2.10;99.90;;;;;;4443540;32;20085;-59
2023/01/28 07:47:54;;;;;;;0.43;0.43;;;2.10;99.90;;;;;;4442596;32;20084;-61
2023/01/28 07:50:20;;;;;;;0.52;0.52;;;2.10;99.90;;;;;;4429434;32;20130;-60
2023/01/28 07:52:45;;;;;;;0.40;0.40;;;2.10;99.90;;;;;;4442995;32;20869;-60
2023/01/28 07:55:14;;;;;;;0.40;0.40;;;2.10;99.90;;;;;;4444621;32;20120;-61
2023/01/28 07:57:49;;;;;;;0.57;0.57;;;2.10;99.90;;;;;;4431464;32;20128;-61
2023/01/28 08:00:15;;;;;;;0.70;0.70;;;2.10;99.90;;;;;;4419165;32;20066;-61
2023/01/28 08:02:43;;;;;;;0.40;0.40;;;2.20;99.90;;;;;;4444512;32;20061;-61
2023/01/28 08:05:09;;;;;;;0.50;0.50;;;2.20;99.90;;;;;;4443272;32;20050;-60
2023/01/28 08:07:34;;;;;;;0.50;0.50;;;2.20;99.90;;;;;;4444071;32;20113;-60
2023/01/28 08:10:00;;;;;;;0.50;0.50;;;2.20;99.90;;;;;;4443677;32;20054;-60
2023/01/28 08:12:25;;;;;;;0.50;0.50;;;2.10;99.90;;;;;;4444213;32;20057;-61
2023/01/28 08:14:51;;;;;;;0.60;0.60;;;2.10;99.90;;;;;;4444651;32;20082;-61
2023/01/28 08:17:16;;;;;;;0.62;0.62;;;2.10;99.90;;;;;;4443086;32;20094;-60
2023/01/28 08:19:41;;;;;;;0.57;0.57;;;2.20;99.90;;;;;;4443489;32;20073;-61
2023/01/28 08:22:07;;;;;;;0.40;0.40;;;2.20;99.90;;;;;;4444077;32;20084;-62
2023/01/28 08:24:32;;;;;;;0.70;0.70;;;2.20;99.90;;;;;;4442451;32;20111;-60
2023/01/28 08:26:58;;;;;;;0.60;0.60;;;2.30;99.90;;;;;;4444570;32;20059;-59
2023/01/28 08:29:23;;;;;;;0.80;0.80;;;2.30;99.90;;;;;;4443848;32;20096;-59
2023/01/28 08:31:49;;;;;;;0.50;0.50;;;2.30;99.90;;;;;;4443103;32;20135;-62
2023/01/28 08:34:14;;;;;;;0.40;0.40;;;2.30;99.90;;;;;;4441518;32;20086;-58
2023/01/28 08:36:40;;;;;;;0.60;0.60;;;2.30;99.90;;;;;;4439910;32;20073;-58
2023/01/28 08:39:05;;;;;;;0.40;0.40;;;2.30;99.90;;;;;;4440785;32;20796;-61
2023/01/28 08:41:30;;;;;;;0.40;0.40;;;2.30;99.90;;;;;;4428993;32;20090;-60
2023/01/28 08:43:56;;;;;;;0.40;0.40;;;2.30;99.90;;;;;;4443622;32;20059;-60
2023/01/28 08:46:22;;;;;;;0.50;0.50;;;2.40;99.90;;;;;;4443784;32;20069;-60
2023/01/28 08:48:49;;;;;;;0.40;0.40;;;2.20;99.90;;;;;;4442899;32;20077;-60
2023/01/28 08:51:14;;;;;;;0.40;0.40;;;2.20;99.90;;;;;;4443005;32;20073;-59
2023/01/28 08:53:40;;;;;;;0.40;0.40;;;2.30;99.90;;;;;;4442952;32;20123;-60
2023/01/28 08:56:05;;;;;;;0.73;0.73;;;2.30;99.90;;;;;;4444065;32;20094;-60
2023/01/28 08:58:31;;;;;;;0.40;0.40;;;2.30;99.90;;;;;;4442745;32;20133;-59
2023/01/28 09:00:56;;;;;;;0.55;0.55;;;2.50;99.90;;;;;;4443682;32;20106;-59
2023/01/28 09:03:22;;;;;;;0.50;0.50;;;2.40;99.90;;;;;;4430842;32;20034;-60
2023/01/28 09:05:49;;;;;;;0.45;0.45;;;2.50;99.90;;;;;;4443844;32;20069;-60
2023/01/28 09:08:15;;;;;;;0.40;0.40;;;2.50;99.90;;;;;;4430353;32;20049;-59
2023/01/28 09:10:41;;;;;;;0.62;0.62;;;2.50;99.90;;;;;;4442834;32;20092;-59
2023/01/28 09:13:08;;;;;;;0.40;0.40;;;2.50;99.90;;;;;;4443636;32;20082;-60
2023/01/28 09:15:34;;;;;;;0.40;0.40;;;2.50;99.90;;;;;;4430381;32;20077;-60
2023/01/28 09:18:00;;;;;;;0.40;0.40;;;2.50;99.90;;;;;;4431470;32;20057;-60
2023/01/28 09:20:25;;;;;;;1.45;0.70;;;2.50;99.90;;;;;;4443247;32;20034;-62
2023/01/28 09:22:51;;;;;;;0.40;0.40;;;2.40;99.90;;;;;;4441616;32;20054;-60
2023/01/28 09:25:17;;;;;;;0.40;0.40;;;2.40;99.90;;;;;;4428452;32;20149;-60
2023/01/28 09:27:42;;;;;;;0.40;0.40;;;2.50;99.90;;;;;;4429636;32;20045;-62
2023/01/28 09:30:09;;;;;;;32.03;2.10;;;2.40;99.90;;;;;;4443285;32;20049;-60
2023/01/28 09:32:34;;;;;;;0.50;0.50;;;2.50;99.90;;;;;;4443073;32;20151;-60
2023/01/28 09:35:00;;;;;;;0.40;0.40;;;2.50;99.90;;;;;;4442015;32;20088;-61
2023/01/28 09:37:25;;;;;;;6.30;1.85;;;2.60;99.90;;;;;;4443039;32;20065;-61
2023/01/28 09:39:51;;;;;;;2.42;1.00;;;2.60;99.90;;;;;;4442746;32;20048;-62
2023/01/28 09:42:38;;;;;;;0.60;0.60;;;2.60;99.90;;;;;;4443384;32;20062;-61
2023/01/28 09:45:15;;;;;;;0.40;0.40;;;2.50;99.90;;;;;;4442266;32;20101;-61
2023/01/28 09:47:42;;;;;;;0.73;0.73;;;2.60;99.90;;;;;;4442057;32;20089;-59
2023/01/28 09:50:17;;;;;;;1.95;0.80;;;2.60;99.90;;;;;;4443819;32;20077;-61
2023/01/28 09:52:43;;;;;;;0.80;0.75;;;2.60;99.90;;;;;;4428691;32;20098;-60
2023/01/28 09:55:18;;;;;;;0.40;0.40;;;2.60;99.90;;;;;;4442392;32;20098;-61
2023/01/28 09:57:52;;;;;;;0.37;0.37;;;2.60;99.90;;;;;;4417055;32;20077;-61
2023/01/28 10:00:21;;;;;;;0.40;0.40;;;2.70;99.90;;;;;;4442915;32;20076;-61
2023/01/28 10:03:15;;;;;;;0.40;0.40;;;2.60;99.90;;;;;;4416513;32;20074;-61
2023/01/28 10:06:09;;;;;;;0.35;0.35;;;2.70;99.90;;;;;;4430488;32;20081;-60
2023/01/28 10:09:03;;;;;;;0.40;0.40;;;2.80;99.90;;;;;;4431159;32;20093;-59
2023/01/28 10:11:56;;;;;;;0.32;0.32;;;2.70;99.90;;;;;;4431659;32;20217;-61
2023/01/28 10:14:52;;;;;;;0.50;0.50;;;2.70;99.90;;;;;;4432032;32;20077;-59
2023/01/28 10:17:42;;;;;;;0.40;0.40;;;2.60;99.90;;;;;;4432333;32;20093;-61
2023/01/28 10:20:14;;;;;;;0.68;0.68;;;2.70;99.90;;;;;;4432847;32;20109;-60
2023/01/28 10:22:47;;;;;;;0.40;0.40;;;2.80;99.90;;;;;;4442391;32;20063;-60
2023/01/28 10:25:18;;;;;;;0.98;0.98;;;2.80;99.90;;;;;;4428632;32;20157;-60
2023/01/28 10:27:45;;;;;;;0.40;0.40;;;2.70;99.90;;;;;;4442839;32;20074;-60
2023/01/28 10:30:30;;;;;;;0.40;0.40;;;2.70;99.90;;;;;;4429372;32;20146;-60
2023/01/28 10:33:02;;;;;;;0.85;0.65;;;2.80;99.90;;;;;;4428713;32;20077;-61
2023/01/28 10:35:36;;;;;;;0.80;0.70;;;2.80;99.90;;;;;;4429264;32;20097;-59
2023/01/28 10:38:06;;;;;;;0.57;0.57;;;2.80;99.90;;;;;;4428766;32;20125;-61
2023/01/28 10:40:32;;;;;;;0.50;0.50;;;2.90;99.90;;;;;;4442586;32;20069;-61
2023/01/28 10:42:57;;;;;;;0.40;0.40;;;2.80;99.90;;;;;;4428064;32;20099;-58
2023/01/28 10:45:27;;;;;;;0.40;0.40;;;2.80;99.90;;;;;;4442742;32;20078;-60
2023/01/28 10:47:59;;;;;;;0.50;0.50;;;2.90;99.90;;;;;;4443679;32;20120;-60
2023/01/28 10:50:28;;;;;;;0.50;0.50;;;3.00;99.90;;;;;;4431779;32;20117;-61
2023/01/28 10:52:58;;;;;;;0.40;0.40;;;2.80;99.90;;;;;;4432192;32;20093;-62
2023/01/28 10:55:26;;;;;;;0.40;0.40;;;2.80;99.90;;;;;;4429429;32;20106;-60
2023/01/28 10:57:53;;;;;;;0.50;0.50;;;2.80;99.90;;;;;;4442826;32;20161;-61
2023/01/28 11:00:26;;;;;;;0.75;0.75;;;2.90;99.90;;;;;;4444900;32;20074;-60
2023/01/28 11:02:53;;;;;;;0.40;0.40;;;2.90;99.90;;;;;;4444132;32;20152;-61
2023/01/28 11:05:25;;;;;;;0.40;0.40;;;2.90;99.90;;;;;;4445993;32;20089;-59
2023/01/28 11:08:04;;;;;;;0.40;0.40;;;3.10;99.90;;;;;;4432442;32;20121;-59
2023/01/28 11:10:33;;;;;;;0.30;0.30;;;3.20;99.90;;;;;;4432442;32;20046;-60
2023/01/28 11:13:02;;;;;;;0.40;0.40;;;3.20;99.90;;;;;;4443540;32;20065;-60
2023/01/28 11:15:28;;;;;;;0.40;0.40;;;3.20;99.90;;;;;;4431580;32;20050;-59
2023/01/28 11:17:58;;;;;;;0.40;0.40;;;3.20;99.90;;;;;;4446271;32;20057;-60
2023/01/28 11:20:27;;;;;;;0.40;0.40;;;3.10;99.90;;;;;;4444519;32;20070;-60
2023/01/28 11:22:53;;;;;;;0.55;0.55;;;3.20;99.90;;;;;;4429216;32;20081;-60
2023/01/28 11:25:28;;;;;;;0.40;0.40;;;3.30;99.90;;;;;;4431606;32;20051;-59
2023/01/28 11:27:54;;;;;;;0.32;0.32;;;3.30;99.90;;;;;;4430228;32;20057;-60
2023/01/28 11:30:23;;;;;;;0.30;0.30;;;3.30;99.90;;;;;;4429983;32;20077;-59
2023/01/28 11:32:59;;;;;;;0.40;0.40;;;3.40;99.90;;;;;;4442250;32;20102;-60
2023/01/28 11:35:29;;;;;;;0.40;0.40;;;3.30;99.90;;;;;;4430135;32;20120;-60
2023/01/28 11:37:55;;;;;;;0.40;0.40;;;3.20;99.90;;;;;;4426283;32;20102;-60
2023/01/28 11:40:21;;;;;;;0.68;0.68;;;3.10;99.90;;;;;;4441408;32;20096;-60
2023/01/28 11:42:47;;;;;;;0.40;0.40;;;3.00;99.90;;;;;;4427054;32;105220;-60
2023/01/28 11:45:17;;;;;;;0.40;0.40;;;2.90;99.90;;;;;;4429999;32;20125;-60
2023/01/28 11:48:01;;;;;;;0.40;0.40;;;3.00;99.90;;;;;;4443684;32;20879;-59
2023/01/28 11:50:37;;;;;;;0.43;0.43;;;3.10;99.90;;;;;;4444112;32;20085;-58
2023/01/28 11:53:13;;;;;;;0.40;0.40;;;3.10;99.90;;;;;;4431207;32;20073;-60
2023/01/28 11:56:15;;;;;;;1.42;0.80;;;3.00;99.90;;;;;;4442743;32;20057;-60
2023/01/28 11:58:53;;;;;;;0.60;0.60;;;3.10;99.90;;;;;;4431471;32;20053;-60
2023/01/28 12:01:27;;;;;;;0.40;0.40;;;3.10;99.90;;;;;;4441001;32;20093;-58
2023/01/28 12:04:17;;;;;;;0.50;0.50;;;3.20;99.90;;;;;;4443111;32;20070;-59
2023/01/28 12:07:01;;;;;;;1.65;1.02;;;3.10;99.90;;;;;;4429595;32;20110;-60
2023/01/28 12:09:42;;;;;;;0.45;0.45;;;3.10;99.90;;;;;;4428840;32;20057;-60
2023/01/28 12:12:48;;;;;;;0.40;0.40;;;3.10;99.90;;;;;;4417822;32;20065;-60
2023/01/28 12:15:39;;;;;;;0.40;0.40;;;3.20;99.90;;;;;;4432994;32;20422;-60
2023/01/28 12:18:31;;;;;;;0.40;0.40;;;3.10;99.90;;;;;;4442512;32;20086;-58
2023/01/28 12:21:09;;;;;;;0.32;0.32;;;3.10;99.90;;;;;;4429776;32;20090;-59
2023/01/28 12:24:04;;;;;;;0.50;0.50;;;3.10;99.90;;;;;;4427043;32;20062;-59
2023/01/28 12:26:55;;;;;;;0.45;0.45;;;3.20;99.90;;;;;;4430090;32;20068;-59
2023/01/28 12:29:28;;;;;;;;;;;3.30;99.90;;;;;;4431094;32;20106;-60
2023/01/28 12:32:10;;;;;;;8.35;1.40;;;3.20;99.90;;;;;;4428707;32;19968;-60
2023/01/28 12:35:03;;;;;;;0.37;0.37;;;3.10;99.90;;;;;;4442457;32;20081;-60
2023/01/28 12:37:44;;;;;;;0.50;0.50;;;3.10;99.90;;;;;;4442186;32;20117;-60
2023/01/28 12:40:25;;;;;;;0.40;0.40;;;3.20;99.90;;;;;;4441309;32;20098;-60
2023/01/28 12:42:58;;;;;;;0.70;0.62;;;3.20;99.90;;;;;;4443726;32;20114;-60
2023/01/28 12:45:32;;;;;;;0.35;0.35;;;3.20;99.90;;;;;;4443529;32;20030;-60
2023/01/28 12:48:05;;;;;;;0.70;0.70;;;3.20;99.90;;;;;;4442130;32;20089;-59
2023/01/28 12:50:36;;;;;;;0.50;0.50;;;3.20;99.90;;;;;;4429537;32;20053;-60
2023/01/28 12:53:15;;;;;;;1.45;0.60;;;3.20;99.90;;;;;;4442960;32;21060;-59
2023/01/28 12:55:46;;;;;;;0.40;0.40;;;3.20;99.90;;;;;;4444180;32;20097;-59
2023/01/28 12:58:19;;;;;;;0.50;0.50;;;3.20;99.90;;;;;;4416927;32;20124;-60
2023/01/28 13:00:50;;;;;;;0.40;0.40;;;3.20;99.90;;;;;;4430394;32;20077;-60
2023/01/28 13:03:29;;;;;;;0.40;0.40;;;3.10;99.90;;;;;;4428748;32;20112;-60
2023/01/28 13:06:00;;;;;;;0.60;0.60;;;3.20;99.90;;;;;;4429286;32;20093;-64
2023/01/28 13:08:27;;;;;;;0.35;0.35;;;3.10;99.90;;;;;;4441990;32;20176;-61
2023/01/28 13:10:55;;;;;;;0.40;0.40;;;3.10;99.90;;;;;;4428330;32;20077;-60
2023/01/28 13:13:29;;;;;;;0.37;0.37;;;3.00;99.90;;;;;;4443220;32;21065;-59
2023/01/28 13:15:55;;;;;;;1.75;1.15;;;2.90;99.90;;;;;;4442593;32;20087;-59
2023/01/28 13:18:38;;;;;;;0.85;0.70;;;2.90;99.90;;;;;;4441370;32;20081;-59
2023/01/28 13:21:05;;;;;;;0.55;0.55;;;2.90;99.90;;;;;;4430174;32;20069;-59
2023/01/28 13:23:40;;;;;;;0.40;0.40;;;2.90;99.90;;;;;;4427189;32;20090;-60
2023/01/28 13:26:25;;;;;;;0.47;0.47;;;2.80;99.90;;;;;;4442044;32;20081;-60
2023/01/28 13:28:52;;;;;;;2.37;1.37;;;2.80;99.90;;;;;;4427215;32;20105;-59
2023/01/28 13:31:22;;;;;;;0.40;0.40;;;2.90;99.90;;;;;;4427421;32;20089;-60
2023/01/28 13:34:00;;;;;;;0.40;0.40;;;2.90;99.90;;;;;;4428532;32;20086;-59